Time;durP1;ratioP1;P1;durP2;ratioP2;P2;SDS_P1;SDS_P2;PMS_P1;PMS_P2;Temp;Humidity;BMP_temperature;BMP_pressure;BME280_temperature;BME280_humidity;BME280_pressure;Samples;Min_cycle;Max_cycle;Signal;HPM_P1;HPM_P2
2022/01/28 00:00:34;;;;;;;15.10;7.32;;;;;;;6.49;59.60;100081.91;4379680;32;32668;-86
2022/01/28 00:05:29;;;;;;;19.15;8.20;;;;;;;6.50;59.41;100086.25;4390617;32;33134;-86
2022/01/28 00:07:57;;;;;;;13.80;8.15;;;;;;;6.64;59.20;100087.66;4388592;32;32280;-86
2022/01/28 00:10:27;;;;;;;17.42;7.05;;;;;;;6.29;59.79;100101.56;4378011;32;33539;-86
2022/01/28 00:15:41;;;;;;;13.93;7.40;;;;;;;6.77;58.47;100095.25;4390986;32;32310;-86
2022/01/28 00:18:36;;;;;;;13.02;7.12;;;;;;;6.68;58.73;100072.69;4401476;32;33641;-86
2022/01/28 00:36:30;;;;;;;19.10;8.23;;;;;;;6.74;58.83;100072.59;4380265;32;32710;-87
2022/01/28 00:40:27;;;;;;;14.87;8.90;;;;;;;6.44;59.24;100107.38;4384696;32;32258;-88
2022/01/28 00:42:55;;;;;;;17.92;9.13;;;;;;;6.58;58.95;100105.31;4394735;32;32629;-88
2022/01/28 00:45:23;;;;;;;16.75;8.57;;;;;;;6.28;60.02;100112.97;4386951;32;32747;-87
2022/01/28 00:47:51;;;;;;;13.90;7.87;;;;;;;6.70;59.00;100107.66;4388053;32;34926;-86
2022/01/28 00:50:19;;;;;;;15.60;8.93;;;;;;;6.28;60.22;100105.09;4389200;32;33213;-86
2022/01/28 00:52:47;;;;;;;19.98;9.77;;;;;;;6.52;59.50;100111.56;4405459;32;33111;-86
2022/01/28 00:55:14;;;;;;;18.23;8.73;;;;;;;6.25;60.44;100089.41;4376470;32;33065;-85
2022/01/28 00:57:42;;;;;;;16.48;7.97;;;;;;;6.44;60.05;100084.63;4394348;32;32501;-86
2022/01/28 01:00:11;;;;;;;21.60;9.57;;;;;;;5.90;61.75;100090.12;4387632;32;33480;-85
2022/01/28 01:02:39;;;;;;;15.13;7.87;;;;;;;5.85;61.86;100081.47;4388669;32;34223;-86
2022/01/28 01:05:08;;;;;;;20.52;8.77;;;;;;;6.27;60.82;100077.16;4387531;32;32792;-86
2022/01/28 01:07:36;;;;;;;18.35;8.23;;;;;;;6.05;61.49;100091.59;4406381;32;33209;-85
2022/01/28 01:10:05;;;;;;;17.35;8.15;;;;;;;6.23;60.61;100085.09;4388850;32;33587;-85
2022/01/28 01:12:37;;;;;;;17.62;8.48;;;;;;;6.18;60.91;100082.59;4375534;32;33844;-85
2022/01/28 01:15:05;;;;;;;16.92;9.00;;;;;;;6.46;59.82;100074.97;4375680;32;33023;-85
2022/01/28 01:17:41;;;;;;;16.30;8.45;;;;;;;6.35;60.27;100069.09;4396004;32;34189;-85
2022/01/28 01:22:41;;;;;;;15.77;8.10;;;;;;;6.26;60.56;100067.53;4387292;32;33848;-84
2022/01/28 01:25:25;;;;;;;12.68;6.95;;;;;;;6.10;60.76;100063.53;4375735;32;33105;-84
2022/01/28 01:27:55;;;;;;;15.75;7.25;;;;;;;6.42;60.04;100060.19;4387746;32;34323;-84
2022/01/28 01:30:26;;;;;;;18.83;9.02;;;;;;;6.24;60.53;100071.94;4375814;32;32353;-84
2022/01/28 01:32:53;;;;;;;12.60;7.47;;;;;;;6.44;59.87;100057.53;4381819;32;33808;-84
2022/01/28 01:35:21;;;;;;;15.52;7.68;;;;;;;6.52;59.62;100066.09;4389026;32;33916;-84
2022/01/28 01:37:48;;;;;;;18.12;8.23;;;;;;;6.41;59.94;100059.34;4390177;32;34048;-84
2022/01/28 01:40:25;;;;;;;16.00;7.70;;;;;;;6.42;60.01;100054.97;4409503;32;32844;-86
2022/01/28 01:43:06;;;;;;;16.65;7.72;;;;;;;6.72;59.06;100049.88;4389953;32;33522;-85
2022/01/28 01:53:36;;;;;;;14.60;7.47;;;;;;;6.25;60.53;100043.97;4388601;32;33594;-87
2022/01/28 01:56:04;;;;;;;13.85;7.68;;;;;;;6.18;60.81;100051.13;4411508;32;33323;-87
2022/01/28 01:58:32;;;;;;;14.63;7.47;;;;;;;5.96;61.51;100057.72;4395196;32;33836;-87
2022/01/28 02:01:01;;;;;;;14.80;7.37;;;;;;;6.07;61.18;100055.72;4389949;32;33389;-87
2022/01/28 02:03:29;;;;;;;13.60;7.10;;;;;;;5.93;61.60;100049.91;4389305;32;33760;-87
2022/01/28 02:06:00;;;;;;;18.23;8.25;;;;;;;6.33;60.50;100047.28;4389749;32;33559;-87
2022/01/28 02:08:32;;;;;;;16.62;7.90;;;;;;;6.18;60.76;100043.25;4391497;32;33801;-87
2022/01/28 02:11:02;;;;;;;16.77;7.03;;;;;;;6.26;60.57;100059.66;4389924;32;32676;-87
2022/01/28 02:13:35;;;;;;;14.38;7.50;;;;;;;6.18;60.90;100047.63;4387896;32;33496;-87
2022/01/28 02:16:03;;;;;;;12.25;6.30;;;;;;;6.60;59.61;100053.69;4376709;32;33684;-88
2022/01/28 02:18:32;;;;;;;12.98;6.78;;;;;;;6.66;59.35;100043.87;4377274;32;33123;-87
2022/01/28 02:21:09;;;;;;;12.57;6.85;;;;;;;6.72;59.19;100037.63;4377885;32;32020;-87
2022/01/28 02:23:38;;;;;;;15.20;6.87;;;;;;;6.52;59.34;100045.13;4398937;32;32762;-87
2022/01/28 02:26:06;;;;;;;10.65;4.97;;;;;;;6.72;58.74;100045.50;4393559;32;32980;-87
2022/01/28 02:28:38;;;;;;;13.60;6.18;;;;;;;6.71;58.78;100041.16;4382694;32;33358;-87
2022/01/28 02:31:06;;;;;;;11.88;6.30;;;;;;;6.71;58.77;100043.78;4389760;32;33187;-87
2022/01/28 02:33:34;;;;;;;10.40;5.05;;;;;;;6.71;58.51;100042.91;4389573;32;34228;-87
2022/01/28 02:36:05;;;;;;;8.38;5.28;;;;;;;6.60;58.97;100053.69;4389375;32;32867;-88
2022/01/28 02:38:34;;;;;;;8.38;5.03;;;;;;;6.43;59.19;100055.81;4409479;32;34470;-87
2022/01/28 02:41:04;;;;;;;9.07;5.37;;;;;;;6.86;58.13;100040.78;4390154;32;33083;-87
2022/01/28 02:43:41;;;;;;;9.40;5.43;;;;;;;6.80;58.24;100046.19;4377460;32;32460;-88
2022/01/28 02:46:12;;;;;;;11.75;5.35;;;;;;;6.54;58.77;100038.91;4393808;32;33685;-88
2022/01/28 02:48:51;;;;;;;9.38;5.12;;;;;;;6.48;58.97;100051.31;4408114;32;33897;-88
2022/01/28 02:51:21;;;;;;;9.95;5.05;;;;;;;6.36;59.65;100045.47;4391216;32;33186;-88
2022/01/28 02:58:45;;;;;;;7.50;3.95;;;;;;;6.89;57.83;100042.47;4395484;32;34546;-86
2022/01/28 03:01:15;;;;;;;9.43;4.62;;;;;;;6.67;58.31;100044.75;4409820;32;33144;-86
2022/01/28 03:03:44;;;;;;;9.60;3.78;;;;;;;6.95;57.44;100049.31;4376928;32;33574;-86
2022/01/28 03:06:14;;;;;;;8.32;3.25;;;;;;;6.21;59.53;100060.66;4377621;32;32989;-86
2022/01/28 03:08:48;;;;;;;5.53;3.20;;;;;;;6.57;58.62;100069.47;4388064;32;33923;-86
2022/01/28 03:14:13;;;;;;;5.18;3.58;;;;;;;6.15;59.97;100066.91;4387865;32;34169;-86
2022/01/28 03:17:01;;;;;;;5.18;2.62;;;;;;;6.38;59.15;100055.91;4387958;32;33714;-86
2022/01/28 03:19:42;;;;;;;5.35;2.75;;;;;;;6.54;58.90;100045.94;4395419;32;33486;-86
2022/01/28 03:22:10;;;;;;;3.30;2.40;;;;;;;6.57;58.69;100056.34;4388297;32;33234;-86
2022/01/28 03:24:39;;;;;;;3.00;1.98;;;;;;;6.70;58.31;100064.81;4377508;32;33741;-85
2022/01/28 03:27:15;;;;;;;3.37;2.17;;;;;;;6.50;58.97;100068.75;4389066;32;33594;-85
2022/01/28 03:29:43;;;;;;;5.30;2.10;;;;;;;6.67;58.50;100069.22;4388768;32;34275;-86
2022/01/28 03:32:10;;;;;;;4.37;2.47;;;;;;;6.83;58.03;100081.97;4377078;32;32373;-86
2022/01/28 03:34:38;;;;;;;4.43;2.20;;;;;;;6.62;58.68;100072.84;4400092;32;32119;-86
2022/01/28 03:37:08;;;;;;;4.45;2.40;;;;;;;6.65;58.58;100057.06;4407859;32;33809;-86
2022/01/28 03:39:36;;;;;;;3.95;1.98;;;;;;;6.42;59.51;100075.94;4394505;32;33759;-86
2022/01/28 03:42:04;;;;;;;2.92;2.05;;;;;;;6.84;58.30;100065.34;4388580;32;33129;-86
2022/01/28 03:44:32;;;;;;;2.75;1.83;;;;;;;6.73;58.77;100070.84;4374423;32;33056;-85
2022/01/28 03:47:00;;;;;;;5.20;2.08;;;;;;;6.69;58.70;100071.81;4389245;32;33618;-85
2022/01/28 03:49:27;;;;;;;2.87;1.70;;;;;;;6.75;58.20;100079.56;4377047;32;33849;-85
2022/01/28 03:51:55;;;;;;;2.90;1.52;;;;;;;6.41;59.17;100084.72;4377484;32;32193;-86
2022/01/28 03:54:23;;;;;;;2.45;1.70;;;;;;;6.81;58.13;100084.66;4388517;32;34054;-86
2022/01/28 03:56:51;;;;;;;2.80;1.83;;;;;;;7.14;56.97;100080.34;4387596;32;34247;-86
2022/01/28 03:59:20;;;;;;;3.60;2.22;;;;;;;7.09;56.93;100079.59;4375266;32;33474;-86
2022/01/28 04:01:49;;;;;;;2.42;1.40;;;;;;;7.18;56.73;100095.13;4388609;32;32796;-86
2022/01/28 04:12:40;;;;;;;2.75;1.62;;;;;;;7.06;56.66;100081.41;4393776;32;33453;-88
2022/01/28 04:17:36;;;;;;;2.47;1.50;;;;;;;6.97;56.88;100094.78;4389355;32;33116;-88
2022/01/28 04:20:04;;;;;;;1.70;1.20;;;;;;;7.12;56.21;100094.37;4385325;32;33950;-88
2022/01/28 04:22:32;;;;;;;2.30;1.33;;;;;;;7.06;55.98;100089.28;4387700;32;34230;-89
2022/01/28 04:24:59;;;;;;;1.92;1.42;;;;;;;7.02;56.00;100085.00;4397223;32;33059;-88
2022/01/28 04:27:27;;;;;;;2.50;1.52;;;;;;;6.72;56.86;100090.09;4377231;32;33391;-88
2022/01/28 04:29:55;;;;;;;1.58;1.12;;;;;;;6.70;56.77;100089.28;4377747;32;33664;-88
2022/01/28 04:32:25;;;;;;;2.62;1.40;;;;;;;6.46;57.58;100080.22;4377776;32;32427;-88
2022/01/28 04:34:54;;;;;;;2.03;1.20;;;;;;;6.81;56.13;100084.66;4378086;32;32396;-87
2022/01/28 05:15:16;;;;;;;1.30;0.82;;;;;;;6.58;56.32;100102.69;4396657;32;33199;-88
2022/01/28 05:28:02;;;;;;;2.60;0.95;;;;;;;6.49;56.06;100089.78;4383094;32;31168;-87
2022/01/28 05:30:30;;;;;;;0.80;0.70;;;;;;;6.23;56.41;100085.97;4391022;32;33189;-87
2022/01/28 05:32:57;;;;;;;1.60;0.70;;;;;;;6.43;55.97;100087.28;4392300;32;32277;-87
2022/01/28 05:35:27;;;;;;;0.98;0.70;;;;;;;6.40;55.96;100093.44;4370004;32;32699;-87
2022/01/28 05:37:54;;;;;;;1.23;0.82;;;;;;;6.35;55.94;100090.94;4382130;32;33163;-88
2022/01/28 05:40:23;;;;;;;1.15;0.60;;;;;;;6.24;56.22;100087.69;4366562;32;32682;-87
2022/01/28 05:42:51;;;;;;;2.35;0.70;;;;;;;6.65;54.85;100071.03;4403496;32;33561;-87
2022/01/28 05:45:18;;;;;;;1.65;0.90;;;;;;;6.31;55.69;100068.28;4372162;32;32306;-87
2022/01/28 05:47:46;;;;;;;1.12;0.80;;;;;;;6.43;55.24;100076.81;4385689;32;33474;-87
2022/01/28 05:50:14;;;;;;;1.65;0.98;;;;;;;6.46;55.28;100074.09;4370200;32;33445;-88
2022/01/28 05:52:41;;;;;;;1.90;0.75;;;;;;;6.49;55.22;100079.28;4402537;32;33579;-87
2022/01/28 05:55:09;;;;;;;1.55;0.68;;;;;;;6.24;55.69;100079.81;4369649;32;35665;-86
2022/01/28 05:57:37;;;;;;;2.15;0.98;;;;;;;6.46;55.38;100090.72;4403125;32;34179;-87
2022/01/28 06:00:05;;;;;;;3.20;1.05;;;;;;;6.46;55.54;100098.59;4381093;32;33274;-86
2022/01/28 06:02:45;;;;;;;2.35;0.80;;;;;;;6.27;56.29;100108.63;4387558;32;34261;-86
2022/01/28 06:05:13;;;;;;;6.95;0.80;;;;;;;6.32;56.27;100101.50;4390136;32;33785;-85
2022/01/28 06:07:42;;;;;;;3.53;1.42;;;;;;;6.43;55.89;100119.63;4367527;32;33290;-85
2022/01/28 06:10:10;;;;;;;1.37;0.77;;;;;;;6.57;55.58;100125.44;4389842;32;32718;-86
2022/01/28 06:12:43;;;;;;;1.08;0.85;;;;;;;6.40;55.93;100124.94;4382338;32;33266;-86
2022/01/28 06:15:11;;;;;;;1.55;1.08;;;;;;;6.67;55.47;100132.19;4383711;32;33129;-87
2022/01/28 06:17:40;;;;;;;1.25;0.77;;;;;;;6.70;55.31;100147.03;4372424;32;32728;-87
2022/01/28 06:20:10;;;;;;;1.10;0.75;;;;;;;6.67;55.54;100157.59;4377111;32;34705;-86
2022/01/28 06:22:41;;;;;;;1.83;0.93;;;;;;;6.88;54.72;100137.84;4383536;32;32683;-86
2022/01/28 06:25:10;;;;;;;1.50;0.77;;;;;;;6.88;54.55;100148.34;4384893;32;33127;-86
2022/01/28 06:27:38;;;;;;;3.42;1.00;;;;;;;6.74;55.01;100153.94;4379258;32;33612;-86
2022/01/28 06:30:06;;;;;;;1.15;0.85;;;;;;;6.70;55.08;100160.16;4382318;32;33521;-85
2022/01/28 06:32:35;;;;;;;0.70;0.70;;;;;;;6.67;55.12;100155.81;4394309;32;32752;-86
2022/01/28 06:35:09;;;;;;;1.77;0.80;;;;;;;6.67;55.10;100153.19;4388659;32;33320;-86
2022/01/28 06:37:41;;;;;;;1.95;1.05;;;;;;;6.83;54.27;100153.69;4393526;32;33630;-85
2022/01/28 06:40:11;;;;;;;2.47;1.17;;;;;;;6.51;54.75;100151.81;4387370;32;32811;-87
2022/01/28 06:42:39;;;;;;;1.45;0.98;;;;;;;6.52;54.86;100155.28;4400763;32;34090;-87
2022/01/28 06:45:07;;;;;;;0.77;0.50;;;;;;;6.56;54.26;100165.69;4377853;32;33901;-86
2022/01/28 06:47:35;;;;;;;1.62;0.75;;;;;;;6.28;55.04;100159.28;4376896;32;33215;-87
2022/01/28 06:50:05;;;;;;;1.37;0.68;;;;;;;6.41;54.24;100163.41;4406288;32;31500;-86
2022/01/28 06:52:33;;;;;;;1.92;0.73;;;;;;;6.69;53.52;100171.53;4390626;32;33206;-93
2022/01/28 06:55:27;;;;;;;1.05;0.80;;;;;;;6.84;53.22;100165.94;4366606;32;32187;-93
2022/01/28 06:58:08;;;;;;;0.70;0.47;;;;;;;6.50;54.01;100185.94;4400839;32;33468;-92
2022/01/28 07:00:59;;;;;;;0.93;0.60;;;;;;;6.84;52.72;100199.22;4372306;32;32213;-91
2022/01/28 07:03:38;;;;;;;1.10;0.50;;;;;;;7.12;51.57;100204.69;4421303;32;32055;-92
2022/01/28 07:06:29;;;;;;;3.25;0.57;;;;;;;6.92;52.45;100211.25;4364925;32;32025;-94
2022/01/28 07:09:10;;;;;;;1.00;0.70;;;;;;;6.80;53.30;100201.03;4383670;32;33106;-93
2022/01/28 07:12:03;;;;;;;2.85;0.70;;;;;;;7.20;52.13;100205.38;4390640;32;33731;-93
2022/01/28 07:14:43;;;;;;;0.73;0.50;;;;;;;6.93;52.79;100215.62;4395636;32;32944;-92
2022/01/28 07:17:24;;;;;;;1.55;0.68;;;;;;;7.04;52.57;100222.38;4363930;32;32595;-92
2022/01/28 07:20:17;;;;;;;1.15;0.80;;;;;;;7.36;51.92;100225.12;4374273;32;33626;-92
2022/01/28 07:22:57;;;;;;;2.58;0.80;;;;;;;7.41;51.87;100209.28;4406046;32;32851;-93
2022/01/28 07:26:01;;;;;;;1.17;0.70;;;;;;;7.09;52.27;100202.13;4369022;32;32613;-93
2022/01/28 07:28:41;;;;;;;2.85;0.70;;;;;;;7.42;51.49;100198.72;4352237;32;32146;-92
2022/01/28 07:31:33;;;;;;;1.10;0.50;;;;;;;7.22;52.33;100193.09;4347155;32;33805;-92
2022/01/28 07:34:13;;;;;;;0.82;0.43;;;;;;;7.34;51.24;100198.03;4362365;32;32658;-92
2022/01/28 07:37:04;;;;;;;1.10;0.75;;;;;;;7.42;50.72;100182.94;4380365;32;33152;-93
2022/01/28 07:39:43;;;;;;;1.12;0.28;;;;;;;7.04;51.18;100199.63;4370072;32;33373;-91
2022/01/28 07:42:50;;;;;;;1.52;0.80;;;;;;;6.82;50.96;100217.59;4369597;32;32957;-94
2022/01/28 07:45:32;;;;;;;1.62;0.98;;;;;;;7.26;49.76;100220.97;4376334;32;33240;-94
2022/01/28 07:48:23;;;;;;;1.35;0.52;;;;;;;7.06;50.12;100229.31;4366379;32;32612;-94
2022/01/28 07:51:02;;;;;;;4.78;1.98;;;;;;;7.41;49.22;100222.41;4356995;32;33413;-93
2022/01/28 07:53:53;;;;;;;2.75;1.58;;;;;;;7.21;49.63;100225.47;4387302;32;32835;-93
2022/01/28 07:56:32;;;;;;;2.70;0.80;;;;;;;7.26;49.13;100235.88;4379375;32;33546;-92
2022/01/28 07:59:23;;;;;;;1.17;0.77;;;;;;;7.75;48.36;100222.44;4388918;32;33850;-92
2022/01/28 08:02:03;;;;;;;0.65;0.65;;;;;;;7.67;48.22;100219.13;4390142;32;31997;-92
2022/01/28 08:04:54;;;;;;;0.77;0.50;;;;;;;7.72;47.87;100225.12;4395693;32;32718;-94
2022/01/28 08:07:47;;;;;;;1.50;0.43;;;;;;;7.90;47.07;100223.81;4359884;32;32872;-94
2022/01/28 08:10:38;;;;;;;1.00;0.30;;;;;;;7.54;47.57;100222.94;4370859;32;33921;-93
2022/01/28 08:13:30;;;;;;;1.27;0.52;;;;;;;7.56;47.82;100213.28;4364562;32;33988;-91
2022/01/28 08:15:58;;;;;;;0.93;0.55;;;;;;;7.95;46.33;100235.91;4353896;32;32948;-90
2022/01/28 08:18:26;;;;;;;2.15;0.55;;;;;;;7.84;46.53;100237.97;4389530;32;32842;-90
2022/01/28 08:20:53;;;;;;;1.60;0.22;;;;;;;7.76;45.83;100242.56;4365975;32;32941;-90
2022/01/28 08:23:22;;;;;;;0.50;0.40;;;;;;;7.57;46.61;100252.66;4379405;32;32823;-90
2022/01/28 08:25:53;;;;;;;0.77;0.40;;;;;;;7.53;46.49;100252.75;4360659;32;33092;-90
2022/01/28 08:28:21;;;;;;;;;;;;;;;7.99;44.80;100241.97;4384409;32;33329;-90
2022/01/28 08:30:49;;;;;;;0.85;0.30;;;;;;;8.38;44.59;100234.78;4375802;32;34447;-90
2022/01/28 08:33:17;;;;;;;0.47;0.30;;;;;;;8.02;44.77;100225.22;4386427;32;32924;-90
2022/01/28 08:35:51;;;;;;;1.62;0.50;;;;;;;8.23;43.75;100229.06;4375166;32;32028;-91
2022/01/28 08:38:29;;;;;;;0.73;0.25;;;;;;;7.91;44.46;100239.53;4344644;32;33078;-90
2022/01/28 08:40:59;;;;;;;0.95;0.32;;;;;;;8.30;42.88;100231.47;4361684;32;34345;-91
2022/01/28 08:43:28;;;;;;;1.00;0.37;;;;;;;8.30;43.28;100227.97;4350140;32;32427;-90
2022/01/28 08:45:55;;;;;;;2.97;0.60;;;;;;;8.24;43.84;100236.91;4351745;32;33125;-90
2022/01/28 08:48:26;;;;;;;0.45;0.20;;;;;;;8.26;43.11;100232.50;4352562;32;33041;-90
2022/01/28 08:50:53;;;;;;;0.55;0.20;;;;;;;7.96;43.39;100240.28;4364377;32;33093;-91
2022/01/28 08:53:21;;;;;;;1.12;0.40;;;;;;;7.95;42.95;100241.19;4351509;32;31861;-91
2022/01/28 08:55:49;;;;;;;3.90;0.60;;;;;;;7.76;43.23;100232.03;4348860;32;33301;-90
2022/01/28 08:58:22;;;;;;;3.40;0.32;;;;;;;8.23;42.23;100232.56;4352185;32;33051;-91
2022/01/28 09:00:52;;;;;;;2.28;0.30;;;;;;;7.90;42.92;100224.66;4364651;32;33010;-91
2022/01/28 09:03:22;;;;;;;1.40;0.10;;;;;;;8.22;42.19;100230.84;4364171;32;32303;-90
2022/01/28 09:05:50;;;;;;;0.30;0.20;;;;;;;8.25;42.77;100216.72;4364009;32;32781;-91
2022/01/28 09:08:20;;;;;;;0.40;0.20;;;;;;;8.35;42.22;100224.31;4363762;32;34545;-91
2022/01/28 09:10:59;;;;;;;0.85;0.30;;;;;;;8.66;42.59;100218.22;4363148;32;33521;-91
2022/01/28 09:13:48;;;;;;;0.10;0.10;;;;;;;8.81;42.71;100232.72;4369669;32;33473;-91
2022/01/28 09:16:38;;;;;;;2.60;0.28;;;;;;;8.67;43.10;100235.75;4364539;32;32350;-86
2022/01/28 09:19:07;;;;;;;1.00;0.20;;;;;;;8.62;43.01;100242.91;4373443;32;34761;-90
2022/01/28 09:21:36;;;;;;;0.28;0.28;;;;;;;8.72;43.06;100239.97;4372519;32;33413;-88
2022/01/28 09:24:04;;;;;;;1.25;0.40;;;;;;;8.68;43.32;100242.72;4396745;32;33870;-90
2022/01/28 09:26:33;;;;;;;6.65;0.80;;;;;;;8.87;43.04;100236.00;4378470;32;32930;-89
2022/01/28 09:29:02;;;;;;;0.73;0.30;;;;;;;8.81;43.29;100245.88;4383443;32;32875;-89
2022/01/28 09:31:34;;;;;;;2.72;1.27;;;;;;;8.78;43.59;100264.37;4400535;32;32877;-89
2022/01/28 09:34:02;;;;;;;4.80;0.93;;;;;;;8.92;42.08;100268.34;4391215;32;33728;-88
2022/01/28 09:36:30;;;;;;;2.85;1.02;;;;;;;8.84;42.45;100259.81;4364352;32;33371;-88
2022/01/28 09:38:58;;;;;;;1.48;0.70;;;;;;;9.18;42.40;100258.81;4352082;32;33738;-87
2022/01/28 09:41:25;;;;;;;2.12;0.60;;;;;;;9.06;41.31;100254.75;4368339;32;33136;-87
2022/01/28 09:43:54;;;;;;;2.22;0.43;;;;;;;9.26;41.42;100253.28;4368527;32;32268;-88
2022/01/28 09:46:23;;;;;;;0.90;0.40;;;;;;;9.38;40.62;100250.28;4381201;32;33238;-88
2022/01/28 09:48:51;;;;;;;1.95;0.37;;;;;;;9.17;41.11;100252.69;4378451;32;34019;-88
2022/01/28 09:51:19;;;;;;;0.77;0.32;;;;;;;8.89;41.24;100247.37;4368294;32;31355;-87
2022/01/28 09:53:47;;;;;;;0.55;0.30;;;;;;;8.97;41.50;100266.47;4367916;32;32727;-88
2022/01/28 09:56:15;;;;;;;1.23;0.60;;;;;;;8.80;41.37;100257.31;4368536;32;32364;-87
2022/01/28 09:58:42;;;;;;;6.40;0.47;;;;;;;9.02;40.76;100260.16;4379953;32;34001;-88
2022/01/28 10:01:10;;;;;;;1.67;0.47;;;;;;;9.19;41.60;100265.78;4366297;32;34683;-87
2022/01/28 10:03:38;;;;;;;0.40;0.20;;;;;;;9.26;40.67;100272.62;4365875;32;32396;-87
2022/01/28 10:06:06;;;;;;;2.35;0.10;;;;;;;9.26;39.33;100262.06;4379829;32;33118;-87
2022/01/28 10:08:35;;;;;;;1.20;0.40;;;;;;;9.35;40.37;100256.53;4358723;32;33359;-87
2022/01/28 10:11:08;;;;;;;0.60;0.15;;;;;;;9.83;38.78;100263.75;4368713;32;33712;-88
2022/01/28 10:13:47;;;;;;;1.25;0.35;;;;;;;9.65;38.21;100259.94;4383467;32;32479;-88
2022/01/28 10:16:19;;;;;;;1.95;0.30;;;;;;;9.85;37.21;100239.97;4358041;32;32923;-87
2022/01/28 10:22:50;;;;;;;6.72;0.47;;;;;;;9.69;37.96;100251.03;4334750;33;33819;-86
2022/01/28 10:25:23;;;;;;;4.30;0.25;;;;;;;9.69;37.64;100239.63;4323375;33;31760;-89
2022/01/28 10:28:13;;;;;;;5.87;0.30;;;;;;;9.70;37.12;100236.06;4318750;33;33771;-88
2022/01/28 10:30:43;;;;;;;0.55;0.15;;;;;;;9.57;37.55;100234.72;4330460;33;33463;-90
2022/01/28 10:33:18;;;;;;;1.27;0.30;;;;;;;9.57;36.96;100235.59;4317742;33;32697;-87
2022/01/28 10:35:57;;;;;;;1.02;0.40;;;;;;;9.67;36.80;100231.75;4331215;32;33306;-89
2022/01/28 10:38:29;;;;;;;1.87;0.32;;;;;;;9.22;38.39;100215.66;4326314;33;34335;-90
2022/01/28 10:41:23;;;;;;;2.58;0.50;;;;;;;9.30;38.06;100220.66;4332442;33;34633;-90
2022/01/28 10:43:55;;;;;;;3.28;0.28;;;;;;;9.59;37.38;100211.81;4305315;33;34129;-90
2022/01/28 10:46:34;;;;;;;0.82;0.28;;;;;;;9.94;37.14;100213.28;4320292;33;33430;-90
2022/01/28 10:49:05;;;;;;;0.55;0.30;;;;;;;10.44;35.44;100194.78;4318810;33;32674;-89
2022/01/28 10:51:41;;;;;;;0.52;0.47;;;;;;;10.21;36.63;100206.16;4331156;33;34738;-89
2022/01/28 10:54:22;;;;;;;0.62;0.20;;;;;;;10.37;36.22;100207.38;4319929;33;32402;-90
2022/01/28 10:57:01;;;;;;;3.72;0.55;;;;;;;9.97;37.29;100221.94;4325478;33;32133;-90
2022/01/28 10:59:36;;;;;;;1.65;0.30;;;;;;;10.26;37.03;100222.75;4319974;32;32903;-90
2022/01/28 11:02:06;;;;;;;1.87;0.30;;;;;;;10.30;36.70;100216.41;4334559;32;33260;-90
2022/01/28 11:04:34;;;;;;;2.62;0.20;;;;;;;10.13;37.17;100230.19;4356492;32;32880;-90
2022/01/28 11:07:03;;;;;;;1.70;0.10;;;;;;;10.10;37.40;100234.69;4349720;32;33863;-89
2022/01/28 11:09:31;;;;;;;1.77;0.30;;;;;;;10.28;37.56;100223.53;4360164;32;32432;-89
2022/01/28 11:12:00;;;;;;;2.87;0.50;;;;;;;10.58;37.40;100224.19;4339073;32;33295;-89
2022/01/28 11:14:28;;;;;;;0.25;0.25;;;;;;;10.37;38.06;100227.63;4351543;32;33623;-89
2022/01/28 11:16:57;;;;;;;0.90;0.40;;;;;;;9.70;39.69;100238.69;4349999;32;33488;-89
2022/01/28 11:19:27;;;;;;;1.17;0.40;;;;;;;9.54;39.66;100259.41;4359683;32;33738;-89
2022/01/28 11:22:09;;;;;;;1.23;0.50;;;;;;;9.28;40.74;100262.88;4368574;32;32657;-88
2022/01/28 11:24:50;;;;;;;0.50;0.20;;;;;;;9.28;40.74;100278.69;4350953;32;33827;-88
2022/01/28 11:27:27;;;;;;;4.30;0.50;;;;;;;9.04;41.36;100287.34;4349115;32;33445;-89
2022/01/28 11:30:13;;;;;;;3.12;0.47;;;;;;;9.32;40.70;100282.09;4351816;32;33089;-88
2022/01/28 11:33:02;;;;;;;0.88;0.37;;;;;;;9.23;41.05;100288.50;4349162;32;33971;-89
2022/01/28 11:35:32;;;;;;;1.12;0.28;;;;;;;8.85;42.44;100287.87;4338318;32;33709;-89
2022/01/28 11:38:04;;;;;;;3.42;0.73;;;;;;;8.74;41.69;100274.16;4349463;32;33123;-89
2022/01/28 11:40:43;;;;;;;0.23;0.20;;;;;;;8.46;41.95;100298.63;4346868;32;33405;-88
2022/01/28 11:43:20;;;;;;;1.48;0.25;;;;;;;8.85;40.37;100292.28;4363760;32;32649;-89
2022/01/28 11:45:48;;;;;;;2.78;0.40;;;;;;;8.41;42.66;100291.75;4349106;32;33230;-88
2022/01/28 11:48:16;;;;;;;2.25;0.85;;;;;;;8.80;41.50;100279.25;4361198;32;33776;-88
2022/01/28 11:50:50;;;;;;;1.12;0.30;;;;;;;8.72;41.71;100286.50;4336902;32;34003;-88
2022/01/28 11:53:21;;;;;;;0.70;0.43;;;;;;;8.67;41.54;100272.59;4347512;32;33700;-89
2022/01/28 11:56:01;;;;;;;4.70;0.40;;;;;;;8.74;42.20;100261.00;4350744;32;33515;-88
2022/01/28 11:59:03;;;;;;;1.42;0.35;;;;;;;8.87;41.46;100264.97;4361138;32;33795;-88
2022/01/28 12:01:40;;;;;;;0.55;0.30;;;;;;;8.48;42.96;100271.37;4359097;32;34045;-88
2022/01/28 12:04:26;;;;;;;1.20;0.32;;;;;;;8.66;42.03;100276.12;4349169;32;34803;-88
2022/01/28 12:07:17;;;;;;;2.35;0.55;;;;;;;8.82;41.63;100272.16;4348234;32;35244;-88
2022/01/28 12:09:53;;;;;;;1.10;0.70;;;;;;;8.92;41.83;100284.13;4349639;32;33543;-89
2022/01/28 12:12:49;;;;;;;3.80;0.45;;;;;;;8.56;42.59;100280.81;4359911;32;32789;-88
2022/01/28 12:15:19;;;;;;;5.30;0.75;;;;;;;8.10;43.67;100286.38;4349945;32;33700;-88
2022/01/28 12:17:49;;;;;;;1.92;0.45;;;;;;;8.21;43.27;100297.50;4336129;32;33429;-88
2022/01/28 12:20:47;;;;;;;2.08;0.50;;;;;;;8.22;43.15;100291.34;4357199;32;33798;-88
2022/01/28 12:23:18;;;;;;;2.50;0.50;;;;;;;8.35;42.90;100292.72;4348915;32;33123;-88
2022/01/28 12:25:47;;;;;;;2.03;0.40;;;;;;;7.94;43.42;100302.56;4362152;32;33613;-86
2022/01/28 12:28:16;;;;;;;1.08;0.47;;;;;;;8.16;42.94;100302.00;4335771;33;33118;-88
2022/01/28 12:31:17;;;;;;;2.97;0.70;;;;;;;8.12;42.81;100303.00;4348311;32;33810;-88
2022/01/28 12:33:47;;;;;;;2.80;0.80;;;;;;;8.49;42.60;100300.28;4345615;32;34514;-88
2022/01/28 12:36:21;;;;;;;3.72;0.55;;;;;;;8.65;42.16;100311.28;4338431;33;33388;-88
2022/01/28 12:39:08;;;;;;;0.73;0.20;;;;;;;8.39;42.68;100310.19;4339179;33;32650;-88
2022/01/28 12:41:43;;;;;;;1.85;0.57;;;;;;;8.21;43.01;100315.91;4339897;33;33342;-88
2022/01/28 12:44:14;;;;;;;1.48;0.98;;;;;;;8.09;43.42;100318.87;4350290;32;33932;-88
2022/01/28 12:46:49;;;;;;;2.87;0.80;;;;;;;8.49;41.98;100304.69;4325289;33;33050;-88
2022/01/28 12:49:23;;;;;;;0.65;0.40;;;;;;;8.06;43.51;100326.81;4336512;33;33970;-88
2022/01/28 12:51:54;;;;;;;1.00;0.80;;;;;;;8.33;42.75;100318.22;4330834;33;33692;-88
2022/01/28 12:54:40;;;;;;;2.10;0.45;;;;;;;8.38;42.65;100313.75;4340257;33;33243;-88
2022/01/28 12:57:10;;;;;;;0.95;0.50;;;;;;;8.33;42.53;100314.72;4322415;33;32511;-88
2022/01/28 12:59:41;;;;;;;4.07;1.92;;;;;;;8.55;42.39;100322.97;4337155;33;32336;-88
2022/01/28 13:02:08;;;;;;;2.35;0.68;;;;;;;8.33;42.59;100326.13;4333146;32;35576;-87
2022/01/28 13:10:21;;;;;;;2.83;0.50;;;;;;;8.34;42.34;100319.09;4333245;33;32781;-90
2022/01/28 13:12:50;;;;;;;1.83;0.65;;;;;;;8.30;42.62;100330.59;4333995;33;32511;-90
2022/01/28 13:15:20;;;;;;;0.43;0.30;;;;;;;8.19;42.84;100318.59;4342141;32;32224;-90
2022/01/28 13:17:56;;;;;;;0.65;0.40;;;;;;;8.44;42.69;100318.81;4332853;33;32824;-91
2022/01/28 13:20:31;;;;;;;3.40;0.85;;;;;;;8.38;42.17;100308.47;4348729;32;33126;-91
2022/01/28 13:23:02;;;;;;;1.17;0.62;;;;;;;8.31;42.72;100317.41;4335173;33;33040;-90
2022/01/28 13:25:30;;;;;;;1.87;0.55;;;;;;;8.48;42.57;100316.13;4334142;33;33382;-90
2022/01/28 13:28:01;;;;;;;4.32;0.60;;;;;;;8.31;42.88;100316.53;4352490;32;32883;-90
2022/01/28 13:30:34;;;;;;;2.75;0.65;;;;;;;8.11;43.60;100317.91;4349849;32;32985;-89
2022/01/28 13:33:09;;;;;;;2.55;0.52;;;;;;;8.38;42.63;100308.47;4362621;32;33349;-89
2022/01/28 13:35:37;;;;;;;2.75;0.30;;;;;;;8.38;42.63;100311.09;4346771;33;33525;-90
2022/01/28 13:38:20;;;;;;;3.58;0.62;;;;;;;8.20;43.00;100314.19;4357339;32;33162;-90
2022/01/28 13:40:48;;;;;;;2.15;0.43;;;;;;;8.33;42.31;100294.53;4375863;32;34187;-90
2022/01/28 13:43:18;;;;;;;1.20;0.40;;;;;;;8.22;42.99;100301.87;4361206;32;32616;-88
2022/01/28 13:45:56;;;;;;;0.82;0.57;;;;;;;8.09;42.83;100293.41;4342444;32;34614;-90
2022/01/28 13:48:47;;;;;;;2.10;0.50;;;;;;;7.99;43.07;100310.34;4355002;32;32931;-90